Time;durP1;ratioP1;P1;durP2;ratioP2;P2;SDS_P1;SDS_P2;PMS_P1;PMS_P2;Temp;Humidity;BMP_temperature;BMP_pressure;BME280_temperature;BME280_humidity;BME280_pressure;Samples;Min_cycle;Max_cycle;Signal;HPM_P1;HPM_P2
2022/09/03 00:01:41;;;;;;;8.30;3.42;;;;;;;19.78;43.11;99543.44;4970661;28;20393;-90
2022/09/03 00:04:21;;;;;;;7.45;3.10;;;;;;;19.69;43.93;99537.38;5001251;28;20034;-90
2022/09/03 00:06:59;;;;;;;9.02;4.80;;;;;;;19.66;42.59;99532.38;4971007;28;20125;-91
2022/09/03 00:09:50;;;;;;;9.40;3.15;;;;;;;19.38;42.61;99536.00;4918247;28;23582;-90
2022/09/03 00:12:31;;;;;;;6.90;3.60;;;;;;;19.57;41.90;99539.81;4876474;28;21967;-90
2022/09/03 00:15:08;;;;;;;7.05;3.05;;;;;;;19.43;42.53;99538.09;4929959;28;20155;-89
2022/09/03 00:17:49;;;;;;;5.60;3.65;;;;;;;19.54;42.30;99532.13;4879996;28;20051;-90
2022/09/03 00:20:20;;;;;;;11.80;3.90;;;;;;;19.73;41.81;99528.69;4886169;28;20597;-91
2022/09/03 00:22:50;;;;;;;4.28;3.08;;;;;;;19.75;41.97;99533.06;4910207;28;20062;-90
2022/09/03 00:25:22;;;;;;;8.65;3.58;;;;;;;19.75;41.93;99528.50;4896361;28;20047;-91
2022/09/03 00:27:54;;;;;;;6.35;3.35;;;;;;;19.70;41.91;99526.41;4894297;28;20067;-85
2022/09/03 00:30:23;;;;;;;3.97;2.90;;;;;;;19.71;41.79;99529.94;4911790;28;20047;-85
2022/09/03 00:32:55;;;;;;;10.27;3.72;;;;;;;19.62;41.90;99537.34;4910480;28;20147;-85
2022/09/03 00:35:28;;;;;;;13.68;4.38;;;;;;;19.51;42.03;99533.38;4941585;28;20048;-86
2022/09/03 00:37:55;;;;;;;11.27;3.80;;;;;;;19.61;41.92;99530.28;4894500;28;20088;-86
2022/09/03 00:40:43;;;;;;;7.40;3.10;;;;;;;19.46;42.67;99526.91;4879965;28;20049;-86
2022/09/03 00:43:23;;;;;;;13.52;3.13;;;;;;;19.40;42.36;99530.41;4916784;28;20051;-91
2022/09/03 00:46:26;;;;;;;9.38;3.20;;;;;;;19.39;42.42;99528.75;5002204;28;20122;-91
2022/09/03 00:49:26;;;;;;;7.72;3.63;;;;;;;19.27;42.74;99532.00;4914585;28;20058;-88
2022/09/03 00:52:14;;;;;;;6.93;3.53;;;;;;;19.37;42.12;99528.13;4903749;28;20435;-89
2022/09/03 00:55:31;;;;;;;7.60;3.47;;;;;;;19.25;42.63;99533.25;4974678;28;20490;-91
2022/09/03 00:58:29;;;;;;;4.63;2.90;;;;;;;19.26;42.43;99529.53;4817742;29;20053;-90
2022/09/03 01:00:55;;;;;;;5.78;3.13;;;;;;;19.23;42.59;99528.06;4891661;29;20063;-91
2022/09/03 01:03:44;;;;;;;11.32;2.90;;;;;;;19.39;42.23;99523.38;4976988;28;20068;-89
2022/09/03 01:06:18;;;;;;;7.18;3.08;;;;;;;19.36;42.24;99527.31;4940332;28;20121;-91
2022/09/03 01:09:10;;;;;;;12.35;5.15;;;;;;;19.15;42.66;99522.84;4960059;28;20058;-91
2022/09/03 01:11:50;;;;;;;10.10;4.05;;;;;;;19.43;41.94;99530.00;4988578;28;20065;-90
2022/09/03 01:14:17;;;;;;;5.35;3.00;;;;;;;19.36;42.23;99513.84;4984303;28;20039;-91
2022/09/03 01:16:51;;;;;;;5.70;3.42;;;;;;;19.22;42.13;99518.31;4969831;28;20048;-91
2022/09/03 01:19:42;;;;;;;5.25;3.15;;;;;;;19.34;42.43;99528.53;4971267;28;20056;-90
2022/09/03 01:22:43;;;;;;;7.72;3.80;;;;;;;19.17;42.62;99523.47;4960883;28;20053;-85
2022/09/03 01:25:30;;;;;;;7.03;3.25;;;;;;;19.35;42.41;99522.09;4975208;28;20074;-85
2022/09/03 01:28:26;;;;;;;7.40;3.30;;;;;;;19.38;42.42;99527.91;4999057;28;20574;-84
2022/09/03 01:31:05;;;;;;;5.10;3.50;;;;;;;19.26;42.49;99529.53;4933217;28;20046;-85
2022/09/03 01:33:57;;;;;;;12.02;3.75;;;;;;;19.27;42.42;99523.94;4964824;28;20038;-84
2022/09/03 01:36:33;;;;;;;6.00;3.47;;;;;;;19.28;42.64;99527.44;4963388;28;20043;-85
2022/09/03 01:39:12;;;;;;;6.10;2.80;;;;;;;19.11;43.12;99526.97;4960547;28;20038;-85
2022/09/03 01:42:14;;;;;;;4.72;3.25;;;;;;;19.19;43.03;99532.19;4974184;28;21355;-86
2022/09/03 01:45:11;;;;;;;10.82;5.03;;;;;;;19.36;42.72;99539.91;4901084;28;20093;-85
2022/09/03 01:48:02;;;;;;;11.73;3.80;;;;;;;19.39;42.70;99534.97;4951589;28;20061;-85
2022/09/03 01:50:45;;;;;;;6.07;3.08;;;;;;;19.17;42.98;99523.47;4945837;28;20049;-85
2022/09/03 01:53:17;;;;;;;6.67;3.50;;;;;;;19.39;42.70;99526.06;4918012;28;20054;-84
2022/09/03 01:56:10;;;;;;;4.93;3.05;;;;;;;19.24;43.08;99520.81;4980956;28;20383;-85
2022/09/03 01:58:45;;;;;;;6.68;3.38;;;;;;;19.32;43.04;99523.34;4951110;28;20057;-85
2022/09/03 02:01:23;;;;;;;5.75;3.28;;;;;;;19.27;43.09;99518.56;5000464;28;20053;-85
2022/09/03 02:03:50;;;;;;;8.18;3.20;;;;;;;19.51;42.58;99516.38;5012396;28;20050;-85
2022/09/03 02:06:19;;;;;;;9.73;3.97;;;;;;;19.45;42.84;99519.88;4968225;28;20046;-84
2022/09/03 02:08:46;;;;;;;10.55;3.30;;;;;;;19.39;42.98;99516.13;4984185;28;20038;-85
2022/09/03 02:11:13;;;;;;;9.65;3.40;;;;;;;19.37;42.81;99522.75;4981687;28;20137;-85
2022/09/03 02:13:41;;;;;;;4.18;3.72;;;;;;;19.34;43.02;99528.53;4983047;28;20418;-85
2022/09/03 02:16:16;;;;;;;9.20;3.63;;;;;;;19.21;43.19;99524.75;5001450;28;20072;-85
2022/09/03 02:18:47;;;;;;;4.15;3.42;;;;;;;19.39;42.70;99515.31;4998391;28;20410;-84
2022/09/03 02:21:19;;;;;;;5.68;3.00;;;;;;;19.36;42.84;99516.53;4994140;28;20501;-85
2022/09/03 02:23:46;;;;;;;6.07;3.57;;;;;;;19.29;43.25;99524.56;4964320;28;20050;-85
2022/09/03 02:26:16;;;;;;;9.77;3.97;;;;;;;19.24;43.38;99521.66;4953056;28;20494;-85
2022/09/03 02:28:44;;;;;;;13.00;3.50;;;;;;;19.32;43.45;99527.91;4962493;28;20073;-84
2022/09/03 02:31:11;;;;;;;5.22;3.70;;;;;;;19.35;43.36;99530.19;4968019;28;20038;-85
2022/09/03 02:33:40;;;;;;;8.75;4.65;;;;;;;19.14;43.81;99520.34;4982864;28;20125;-85
2022/09/03 02:36:09;;;;;;;8.80;4.32;;;;;;;19.23;43.65;99527.22;4950587;28;20407;-85
2022/09/03 02:38:36;;;;;;;5.22;3.28;;;;;;;19.21;43.34;99531.97;4980493;28;20042;-84
2022/09/03 02:41:02;;;;;;;6.93;3.40;;;;;;;19.28;43.48;99524.75;4953340;28;20125;-85
2022/09/03 02:43:48;;;;;;;4.45;3.00;;;;;;;19.21;44.09;99519.34;4982688;28;20629;-84
2022/09/03 02:46:25;;;;;;;10.15;3.30;;;;;;;19.23;44.10;99519.16;4980974;28;20042;-85
2022/09/03 02:48:53;;;;;;;10.77;3.58;;;;;;;19.12;43.96;99523.22;4963173;28;20088;-85
2022/09/03 02:51:20;;;;;;;8.30;3.90;;;;;;;19.22;43.96;99517.50;4980287;28;20478;-84
2022/09/03 02:53:47;;;;;;;7.55;3.70;;;;;;;19.24;44.01;99523.50;4984810;28;20057;-85
2022/09/03 02:56:17;;;;;;;7.15;3.47;;;;;;;19.23;44.03;99524.53;4994986;28;20136;-84
2022/09/03 02:58:43;;;;;;;7.53;3.40;;;;;;;19.29;43.83;99532.66;4998030;28;20054;-85
2022/09/03 03:01:10;;;;;;;6.07;3.20;;;;;;;19.26;43.70;99521.47;4983898;28;20490;-85
2022/09/03 03:03:43;;;;;;;8.25;3.17;;;;;;;19.11;44.11;99523.41;4979187;28;20113;-85
2022/09/03 03:06:12;;;;;;;5.00;3.20;;;;;;;19.23;44.02;99525.38;4982876;28;20038;-85
2022/09/03 03:08:39;;;;;;;6.22;4.10;;;;;;;19.20;44.23;99524.94;4968723;28;20085;-85
2022/09/03 03:11:06;;;;;;;5.82;3.20;;;;;;;19.29;44.09;99521.88;4984220;28;20046;-85
2022/09/03 03:13:33;;;;;;;6.60;3.30;;;;;;;19.30;44.16;99520.00;4951022;28;20138;-85
2022/09/03 03:16:02;;;;;;;5.05;3.47;;;;;;;19.37;43.87;99518.19;4984430;28;20046;-85
2022/09/03 03:18:29;;;;;;;5.78;3.55;;;;;;;19.24;44.14;99518.13;4951144;28;20042;-85
2022/09/03 03:20:56;;;;;;;5.63;3.50;;;;;;;19.29;44.00;99526.44;4981031;28;20038;-85
2022/09/03 03:23:23;;;;;;;7.15;3.38;;;;;;;19.33;44.19;99527.69;4983329;28;20042;-85
2022/09/03 03:25:51;;;;;;;6.45;3.58;;;;;;;19.29;44.19;99515.66;5000979;28;20042;-85
2022/09/03 03:33:10;;;;;;;7.93;3.95;;;;;;;19.08;44.96;99513.88;4965850;28;20505;-85
2022/09/03 03:35:37;;;;;;;11.27;3.80;;;;;;;19.02;44.90;99528.16;4964109;28;20058;-85
2022/09/03 03:38:04;;;;;;;9.07;3.92;;;;;;;18.87;45.30;99529.09;4984028;28;20050;-84
2022/09/03 03:40:30;;;;;;;4.47;3.38;;;;;;;18.98;44.77;99530.41;4981622;28;20050;-85
2022/09/03 03:42:57;;;;;;;6.40;3.67;;;;;;;19.11;44.65;99540.44;4966588;28;20660;-85
2022/09/03 03:45:24;;;;;;;6.97;3.47;;;;;;;19.13;44.79;99537.50;4948560;28;20046;-85
2022/09/03 03:47:51;;;;;;;6.43;4.05;;;;;;;19.10;45.15;99527.97;4950455;28;20502;-85
2022/09/03 03:50:19;;;;;;;7.68;3.70;;;;;;;19.07;44.86;99534.59;4947449;28;20053;-85
2022/09/03 03:52:47;;;;;;;6.38;3.55;;;;;;;19.14;44.56;99537.31;4964037;28;20043;-84
2022/09/03 03:55:14;;;;;;;7.35;4.05;;;;;;;19.11;44.85;99528.81;4996395;28;20438;-85
2022/09/03 03:57:41;;;;;;;9.52;4.00;;;;;;;19.10;44.82;99533.38;4966134;28;20116;-90
2022/09/03 04:00:12;;;;;;;6.78;3.83;;;;;;;18.94;45.37;99539.06;4936147;28;20141;-90
2022/09/03 04:02:41;;;;;;;5.13;3.35;;;;;;;19.01;45.33;99537.25;4997344;28;20045;-90
2022/09/03 04:05:08;;;;;;;6.68;3.70;;;;;;;18.78;45.90;99530.28;4983378;28;20074;-88
2022/09/03 04:07:36;;;;;;;6.25;3.80;;;;;;;18.93;45.48;99532.88;4968672;28;20057;-91
2022/09/03 04:10:03;;;;;;;5.07;3.97;;;;;;;18.90;45.72;99533.25;5002852;28;20049;-89
2022/09/03 04:12:30;;;;;;;9.27;4.57;;;;;;;18.94;45.47;99525.63;4953407;28;20513;-88
2022/09/03 04:14:56;;;;;;;6.78;3.72;;;;;;;18.87;45.35;99523.69;4986620;28;20046;-90
2022/09/03 04:17:24;;;;;;;8.80;3.90;;;;;;;18.87;45.73;99523.69;4984936;28;20042;-90
2022/09/03 04:19:51;;;;;;;5.10;3.58;;;;;;;18.95;45.83;99530.78;4968631;28;20059;-89
2022/09/03 04:22:19;;;;;;;5.40;4.03;;;;;;;18.93;45.66;99534.69;4969237;28;20569;-90
2022/09/03 04:24:46;;;;;;;5.32;3.33;;;;;;;19.02;45.67;99531.66;4955111;28;20050;-89
2022/09/03 04:27:12;;;;;;;4.03;3.25;;;;;;;18.98;46.01;99533.09;4986988;28;20050;-89
2022/09/03 04:29:39;;;;;;;6.75;4.50;;;;;;;18.80;46.45;99536.31;4987330;28;20129;-91
2022/09/03 04:34:51;;;;;;;6.68;3.47;;;;;;;18.90;45.85;99532.41;4964321;28;20047;-90
2022/09/03 04:37:19;;;;;;;5.60;3.67;;;;;;;18.89;45.91;99530.75;4961529;28;20042;-90
2022/09/03 04:39:45;;;;;;;7.80;4.50;;;;;;;18.95;45.94;99538.03;4969770;28;20042;-90
2022/09/03 04:42:12;;;;;;;12.13;4.20;;;;;;;18.99;45.88;99534.75;5001221;28;20053;-90
2022/09/03 04:44:39;;;;;;;6.90;4.00;;;;;;;18.98;45.79;99538.50;4965992;28;20376;-90
2022/09/03 04:47:07;;;;;;;10.75;4.05;;;;;;;18.98;46.21;99535.78;4987427;28;20112;-89
2022/09/03 04:49:33;;;;;;;5.05;4.00;;;;;;;18.92;46.12;99541.13;5003666;28;20623;-90
2022/09/03 04:52:02;;;;;;;9.02;4.30;;;;;;;18.93;46.19;99534.69;4967762;28;20114;-90
2022/09/03 04:54:29;;;;;;;5.00;4.03;;;;;;;18.87;45.98;99531.78;4985559;28;20047;-89
2022/09/03 04:56:55;;;;;;;9.75;4.20;;;;;;;18.85;46.45;99535.69;5003799;28;20046;-91
2022/09/03 04:59:22;;;;;;;13.90;4.60;;;;;;;18.86;46.41;99557.03;4970608;28;20053;-90
2022/09/03 05:01:51;;;;;;;11.55;3.90;;;;;;;18.83;46.50;99535.91;4983451;28;20044;-91
2022/09/03 05:04:18;;;;;;;7.13;4.25;;;;;;;18.91;46.10;99551.06;4985289;28;20041;-91
2022/09/03 05:06:45;;;;;;;8.52;3.92;;;;;;;18.93;46.18;99546.31;5006678;28;20152;-90
2022/09/03 05:09:12;;;;;;;5.47;4.22;;;;;;;18.95;46.44;99549.63;4954200;28;20042;-90
2022/09/03 05:11:38;;;;;;;13.45;4.47;;;;;;;18.94;46.37;99552.53;4969764;28;20046;-90
2022/09/03 05:14:05;;;;;;;6.88;4.22;;;;;;;18.90;46.56;99559.31;4969787;28;20513;-90
2022/09/03 05:16:32;;;;;;;7.18;4.10;;;;;;;18.91;46.30;99559.13;4941093;28;20403;-89
2022/09/03 05:18:59;;;;;;;7.82;4.80;;;;;;;18.96;46.72;99554.00;4983742;28;20042;-89
2022/09/03 05:21:27;;;;;;;5.18;4.05;;;;;;;19.00;46.30;99555.25;5002104;28;20043;-89
2022/09/03 05:23:54;;;;;;;10.40;4.85;;;;;;;18.97;46.57;99555.63;4968451;28;20057;-85
2022/09/03 05:26:26;;;;;;;6.57;4.32;;;;;;;19.00;47.12;99557.94;4976516;28;20051;-84
2022/09/03 05:28:58;;;;;;;7.05;3.88;;;;;;;18.94;47.25;99553.34;4964026;28;20051;-84
2022/09/03 05:31:30;;;;;;;8.40;4.38;;;;;;;18.94;47.02;99555.22;4968609;28;20554;-84
2022/09/03 05:33:59;;;;;;;8.15;4.10;;;;;;;18.92;47.09;99557.25;4982531;28;20053;-85
2022/09/03 05:36:27;;;;;;;6.30;3.90;;;;;;;18.98;47.60;99572.59;4959181;28;20053;-85
2022/09/03 05:38:57;;;;;;;9.57;4.07;;;;;;;18.97;48.20;99565.56;4984633;28;20162;-84
2022/09/03 05:41:24;;;;;;;10.10;4.22;;;;;;;18.98;47.70;99565.41;4965818;28;20118;-85
2022/09/03 05:43:57;;;;;;;6.40;4.03;;;;;;;18.97;49.14;99573.66;4997216;28;20052;-85
2022/09/03 05:46:32;;;;;;;13.55;4.28;;;;;;;18.85;50.57;99574.22;4985811;28;20038;-85
2022/09/03 05:49:06;;;;;;;9.43;4.70;;;;;;;18.78;51.41;99564.44;4969260;28;20047;-86
2022/09/03 05:51:34;;;;;;;14.52;5.15;;;;;;;18.81;50.61;99562.16;4983320;28;20055;-85
2022/09/03 05:54:02;;;;;;;5.93;4.68;;;;;;;18.94;49.86;99563.28;4979853;28;20045;-85
2022/09/03 05:56:30;;;;;;;11.07;4.53;;;;;;;18.89;50.52;99561.19;4968750;28;20144;-85
2022/09/03 05:59:00;;;;;;;11.35;4.18;;;;;;;18.86;50.42;99566.97;4984942;28;20042;-85
2022/09/03 06:01:30;;;;;;;7.63;4.68;;;;;;;18.93;49.84;99569.69;4968132;28;20054;-85
2022/09/03 06:04:02;;;;;;;8.30;4.97;;;;;;;18.94;50.33;99572.19;4980693;28;20129;-85
2022/09/03 06:06:31;;;;;;;6.70;4.10;;;;;;;18.91;49.81;99561.00;4982917;28;20049;-85
2022/09/03 06:09:01;;;;;;;8.55;4.55;;;;;;;18.95;50.14;99568.44;4999903;28;20454;-85
2022/09/03 06:11:29;;;;;;;10.57;5.70;;;;;;;18.96;50.52;99567.44;4998701;28;20502;-85
2022/09/03 06:14:00;;;;;;;8.65;4.68;;;;;;;18.99;50.80;99563.53;4980522;28;20545;-85
2022/09/03 06:16:28;;;;;;;5.50;4.22;;;;;;;18.95;51.48;99559.56;4984346;28;20066;-84
2022/09/03 06:19:01;;;;;;;6.20;4.60;;;;;;;18.90;52.23;99562.84;4997191;28;20050;-85
2022/09/03 06:21:28;;;;;;;6.82;4.55;;;;;;;18.97;51.67;99574.47;4998927;28;20375;-85
2022/09/03 06:23:56;;;;;;;9.25;4.95;;;;;;;18.93;51.73;99575.91;4966047;28;20403;-84
2022/09/03 06:26:27;;;;;;;9.45;4.95;;;;;;;19.00;50.71;99581.31;4965804;28;20090;-84
2022/09/03 06:28:55;;;;;;;8.95;5.40;;;;;;;19.03;50.61;99579.09;4950997;28;20077;-84
2022/09/03 06:31:22;;;;;;;7.78;4.72;;;;;;;19.05;50.86;99579.69;4981879;28;20085;-85
2022/09/03 06:33:49;;;;;;;9.20;5.07;;;;;;;19.03;50.42;99583.63;4998671;28;20045;-84
2022/09/03 06:36:17;;;;;;;9.38;4.82;;;;;;;19.02;50.47;99584.66;4967440;28;20046;-85
2022/09/03 06:38:44;;;;;;;6.20;4.75;;;;;;;19.13;50.09;99589.47;4984024;28;20050;-87
2022/09/03 06:41:40;;;;;;;7.28;4.88;;;;;;;18.95;50.40;99583.78;4949813;28;20490;-87
2022/09/03 06:44:10;;;;;;;14.05;4.57;;;;;;;19.05;50.29;99585.09;4951768;28;20051;-87
2022/09/03 06:46:41;;;;;;;8.32;5.03;;;;;;;19.08;50.73;99587.41;4969592;28;20053;-87
2022/09/03 06:49:08;;;;;;;9.15;4.72;;;;;;;19.13;50.58;99585.97;4983602;28;20050;-88
2022/09/03 06:51:36;;;;;;;9.30;5.20;;;;;;;19.07;50.88;99584.91;4976374;28;20450;-87
2022/09/03 06:54:05;;;;;;;12.77;4.88;;;;;;;19.10;50.82;99584.50;4967845;28;20053;-88
2022/09/03 06:56:33;;;;;;;8.10;4.68;;;;;;;19.14;50.84;99582.25;4984304;28;20042;-88
2022/09/03 06:59:10;;;;;;;8.13;4.55;;;;;;;19.04;50.89;99582.59;4983118;28;20557;-87
2022/09/03 07:01:40;;;;;;;8.73;4.80;;;;;;;19.11;50.07;99582.63;4982353;28;20104;-89
2022/09/03 07:04:12;;;;;;;8.48;4.68;;;;;;;19.06;50.25;99585.94;4964606;28;20046;-88
2022/09/03 07:06:41;;;;;;;9.02;4.53;;;;;;;19.10;50.11;99579.13;4966162;28;20053;-88
2022/09/03 07:09:09;;;;;;;8.40;4.32;;;;;;;19.03;50.82;99587.16;4981617;28;20621;-88
2022/09/03 07:11:37;;;;;;;20.85;4.97;;;;;;;19.11;50.50;99585.31;4968507;28;20057;-88
2022/09/03 07:14:04;;;;;;;11.20;4.20;;;;;;;19.24;50.35;99590.81;4999629;28;20046;-90
2022/09/03 07:16:59;;;;;;;7.65;4.50;;;;;;;19.10;51.18;99581.81;4986485;28;20432;-88
2022/09/03 07:19:26;;;;;;;9.73;4.53;;;;;;;19.37;50.32;99584.66;4964037;28;20124;-89
2022/09/03 07:25:39;;;;;;;7.57;4.10;;;;;;;19.36;50.17;99580.28;4967525;28;20038;-87
2022/09/03 07:28:05;;;;;;;8.75;4.65;;;;;;;19.37;50.18;99584.66;4991944;28;20039;-86
2022/09/03 07:30:32;;;;;;;6.75;4.85;;;;;;;19.43;49.89;99587.38;4963283;28;20046;-87
2022/09/03 07:33:03;;;;;;;6.38;3.92;;;;;;;19.46;49.97;99588.84;4998529;28;20058;-86
2022/09/03 07:35:29;;;;;;;7.00;4.10;;;;;;;19.54;50.41;99591.41;4983043;28;20053;-86
2022/09/03 07:37:56;;;;;;;9.00;5.50;;;;;;;19.52;50.10;99588.88;4986900;28;20050;-86
2022/09/03 07:40:23;;;;;;;10.32;4.93;;;;;;;19.52;50.04;99594.28;4967140;28;20054;-86
2022/09/03 07:42:57;;;;;;;8.25;4.80;;;;;;;19.49;50.31;99605.44;4983789;28;20129;-86
2022/09/03 07:45:24;;;;;;;8.65;4.57;;;;;;;19.60;50.02;99593.28;5003322;28;20059;-87
2022/09/03 07:47:52;;;;;;;7.82;4.30;;;;;;;19.63;49.88;99592.03;5003014;28;20054;-87
2022/09/03 07:50:19;;;;;;;9.45;4.13;;;;;;;19.59;49.91;99597.00;5010797;28;20054;-86
2022/09/03 07:52:47;;;;;;;10.10;4.03;;;;;;;19.57;50.21;99584.78;5002353;28;20639;-86
2022/09/03 07:55:14;;;;;;;8.35;4.70;;;;;;;19.59;50.32;99596.16;4985611;28;20046;-86
2022/09/03 07:57:42;;;;;;;8.05;4.57;;;;;;;19.57;51.16;99604.44;4983982;28;20046;-87
2022/09/03 08:00:12;;;;;;;11.07;4.20;;;;;;;19.52;52.75;99605.03;4958216;28;20053;-87
2022/09/03 08:02:39;;;;;;;8.73;4.72;;;;;;;19.46;54.64;99603.16;4971132;28;20046;-88
2022/09/03 08:09:58;;;;;;;6.97;4.47;;;;;;;19.40;58.35;99620.09;4970944;28;20034;-88
2022/09/03 08:12:24;;;;;;;11.23;4.47;;;;;;;19.42;58.66;99617.22;5003655;28;20121;-88
2022/09/03 08:14:56;;;;;;;14.23;5.07;;;;;;;19.36;62.36;99612.59;4954000;28;20138;-88
2022/09/03 08:17:23;;;;;;;6.80;4.18;;;;;;;19.40;60.25;99621.97;4989288;28;20047;-89
2022/09/03 08:19:50;;;;;;;5.88;4.40;;;;;;;19.44;60.59;99623.25;4988939;28;20042;-88
2022/09/03 08:22:17;;;;;;;5.35;4.18;;;;;;;19.43;61.35;99619.69;4981911;28;20053;-88
2022/09/03 08:24:44;;;;;;;5.68;4.13;;;;;;;19.49;62.05;99624.31;4984605;28;20042;-88
2022/09/03 08:27:11;;;;;;;7.30;4.20;;;;;;;19.53;61.77;99625.53;4970745;28;20042;-88
2022/09/03 08:29:39;;;;;;;5.03;3.80;;;;;;;19.53;61.08;99625.53;4967263;28;20487;-87
2022/09/03 08:32:06;;;;;;;6.10;3.53;;;;;;;19.59;58.97;99625.78;4958638;28;20049;-87
2022/09/03 08:34:33;;;;;;;6.35;3.88;;;;;;;19.63;58.49;99622.50;4985895;28;20050;-86
2022/09/03 08:37:01;;;;;;;3.60;3.30;;;;;;;19.70;57.99;99623.41;4968409;28;20490;-86
2022/09/03 08:39:30;;;;;;;3.35;3.05;;;;;;;19.75;57.03;99624.66;4999600;28;20054;-88
2022/09/03 08:42:17;;;;;;;5.68;2.88;;;;;;;19.61;57.37;99634.50;4981525;28;20046;-87
2022/09/03 08:44:57;;;;;;;6.07;3.28;;;;;;;19.64;56.25;99626.88;4969718;28;20053;-86
2022/09/03 08:47:38;;;;;;;4.60;3.50;;;;;;;19.62;57.49;99626.22;4975355;28;20130;-84
2022/09/03 08:50:15;;;;;;;5.43;2.90;;;;;;;19.71;55.77;99624.22;4934629;28;20407;-85
2022/09/03 08:52:58;;;;;;;5.28;2.85;;;;;;;19.65;57.79;99625.81;4990255;28;20607;-85
2022/09/03 08:55:28;;;;;;;4.15;3.45;;;;;;;19.75;56.82;99630.06;4989679;28;20490;-85
2022/09/03 08:58:02;;;;;;;3.80;2.88;;;;;;;19.79;57.23;99634.81;4967202;28;20402;-86
2022/09/03 09:00:39;;;;;;;3.88;2.72;;;;;;;19.75;56.01;99638.13;4938126;28;20042;-87
2022/09/03 09:03:42;;;;;;;4.60;2.70;;;;;;;19.73;56.77;99627.56;4984048;28;20121;-87
2022/09/03 09:06:36;;;;;;;3.53;3.22;;;;;;;19.79;56.56;99621.34;4938046;28;20406;-87
2022/09/03 09:09:34;;;;;;;7.28;3.03;;;;;;;19.80;56.84;99622.22;4959023;28;20555;-85
2022/09/03 09:12:17;;;;;;;5.32;3.15;;;;;;;19.90;57.54;99626.19;4947621;28;20038;-87
2022/09/03 09:14:45;;;;;;;7.45;3.00;;;;;;;19.93;57.08;99627.63;4981145;28;20096;-86
2022/09/03 09:17:15;;;;;;;3.15;2.83;;;;;;;19.91;56.29;99625.13;4984854;28;20469;-87
2022/09/03 09:19:58;;;;;;;4.10;3.00;;;;;;;19.79;57.87;99625.91;4984959;28;20093;-86
2022/09/03 09:22:38;;;;;;;4.18;3.15;;;;;;;19.89;57.56;99632.59;4997974;28;20544;-85
2022/09/03 09:25:13;;;;;;;5.28;2.70;;;;;;;19.98;57.24;99635.94;4971522;28;21539;-84
2022/09/03 09:28:06;;;;;;;3.25;2.70;;;;;;;19.98;58.57;99651.28;4962903;28;20467;-83
2022/09/03 09:31:29;;;;;;;4.28;3.55;;;;;;;19.90;60.05;99677.38;4954791;28;20055;-83
2022/09/03 09:34:05;;;;;;;3.42;2.80;;;;;;;19.92;58.88;99675.31;4894708;28;20081;-84
2022/09/03 09:36:42;;;;;;;5.40;3.15;;;;;;;19.82;62.05;99650.59;4984376;28;20058;-83
2022/09/03 09:39:09;;;;;;;11.07;4.10;;;;;;;19.80;61.36;99635.69;4982666;28;20042;-84
2022/09/03 09:41:39;;;;;;;17.90;5.50;;;;;;;19.61;65.77;99627.25;4963710;28;20545;-83
2022/09/03 09:44:06;;;;;;;25.60;5.93;;;;;;;19.54;66.27;99631.78;4981356;28;20050;-83
2022/09/03 09:46:38;;;;;;;8.90;3.75;;;;;;;19.51;68.92;99627.63;4984382;28;20422;-84
2022/09/03 09:49:23;;;;;;;9.85;3.85;;;;;;;19.44;70.49;99618.69;4982869;28;20543;-84
2022/09/03 09:52:10;;;;;;;8.65;3.42;;;;;;;19.65;68.00;99608.84;4934263;28;20054;-84
2022/09/03 09:54:40;;;;;;;4.03;3.13;;;;;;;19.83;65.74;99603.75;4962157;28;20055;-85
2022/09/03 09:57:17;;;;;;;4.72;3.25;;;;;;;19.76;63.52;99600.19;4981074;28;20051;-84
2022/09/03 09:59:45;;;;;;;15.05;3.85;;;;;;;19.98;62.57;99598.22;5012155;28;20375;-86
2022/09/03 10:02:33;;;;;;;3.90;3.10;;;;;;;19.81;64.80;99608.50;4968020;28;20446;-86
2022/09/03 10:05:14;;;;;;;5.20;3.47;;;;;;;19.91;63.87;99617.06;5007343;28;20050;-86
2022/09/03 10:07:42;;;;;;;6.30;4.22;;;;;;;20.06;64.90;99610.69;4994945;28;20379;-86
2022/09/03 10:10:12;;;;;;;7.05;4.15;;;;;;;19.93;64.74;99617.69;4981800;28;20119;-86
2022/09/03 10:12:43;;;;;;;6.85;3.95;;;;;;;19.93;63.70;99620.38;4987074;28;20116;-86
2022/09/03 10:15:25;;;;;;;7.85;4.28;;;;;;;19.87;67.14;99620.34;4985856;28;20046;-84
2022/09/03 10:17:59;;;;;;;5.47;3.72;;;;;;;19.83;65.50;99619.09;4975222;28;21591;-83
2022/09/03 10:20:46;;;;;;;5.75;4.40;;;;;;;19.76;67.02;99626.31;4936664;28;20046;-85
2022/09/03 10:23:21;;;;;;;6.85;4.30;;;;;;;19.90;65.97;99619.97;4958782;28;20055;-84
2022/09/03 10:26:08;;;;;;;9.48;5.13;;;;;;;19.95;66.63;99617.50;4979923;28;20042;-86
2022/09/03 10:28:39;;;;;;;6.45;4.90;;;;;;;20.06;65.02;99614.19;4928447;28;20046;-85
2022/09/03 10:31:21;;;;;;;8.38;4.70;;;;;;;19.85;66.25;99617.03;5011803;28;20046;-87
2022/09/03 10:34:17;;;;;;;6.07;4.30;;;;;;;19.91;65.44;99614.34;4974912;28;20030;-87
2022/09/03 10:37:08;;;;;;;5.97;4.32;;;;;;;19.99;65.30;99621.44;4962801;28;20046;-86
2022/09/03 10:39:53;;;;;;;6.85;4.97;;;;;;;20.04;65.94;99623.53;4980570;28;20062;-84
2022/09/03 10:42:36;;;;;;;7.07;5.07;;;;;;;20.21;64.82;99618.59;4960492;28;20065;-85
2022/09/03 10:45:22;;;;;;;5.15;4.60;;;;;;;20.09;65.95;99610.28;4979602;28;20375;-86
2022/09/03 10:48:03;;;;;;;5.95;5.03;;;;;;;20.10;65.90;99609.25;4980546;28;20046;-84
2022/09/03 10:50:41;;;;;;;6.40;4.97;;;;;;;20.12;65.28;99602.63;4981587;28;20050;-84
2022/09/03 10:53:20;;;;;;;7.32;5.07;;;;;;;20.25;65.59;99593.72;4995067;28;20682;-85
2022/09/03 10:56:00;;;;;;;5.18;4.50;;;;;;;20.25;65.38;99593.72;4956134;28;20054;-84
2022/09/03 10:58:59;;;;;;;6.20;4.45;;;;;;;20.33;65.42;99592.72;5012042;28;20053;-85
2022/09/03 11:01:32;;;;;;;4.50;4.10;;;;;;;20.41;66.11;99595.19;4975831;28;20534;-87
2022/09/03 11:04:38;;;;;;;4.50;3.83;;;;;;;20.41;65.60;99597.91;4964512;28;20053;-87
2022/09/03 11:07:11;;;;;;;6.68;4.25;;;;;;;20.56;65.34;99606.66;4949664;28;20049;-87
2022/09/03 11:09:40;;;;;;;5.28;3.90;;;;;;;20.59;64.26;99592.75;4960461;28;20062;-87
2022/09/03 11:12:46;;;;;;;7.68;4.47;;;;;;;20.52;66.15;99599.16;4978885;28;20162;-87
2022/09/03 11:15:34;;;;;;;5.78;4.93;;;;;;;20.60;65.36;99604.38;4926427;28;20054;-89
2022/09/03 11:18:11;;;;;;;6.07;4.70;;;;;;;20.68;64.97;99601.47;4970462;28;20074;-90
2022/09/03 11:20:39;;;;;;;5.75;4.47;;;;;;;20.79;64.66;99591.94;4958787;28;20466;-89
2022/09/03 11:23:07;;;;;;;11.65;4.88;;;;;;;20.80;64.63;99580.91;4990399;28;20047;-87
2022/09/03 11:25:43;;;;;;;7.32;5.10;;;;;;;20.74;64.91;99576.38;4974752;28;20490;-87
2022/09/03 11:28:52;;;;;;;6.55;4.53;;;;;;;20.70;66.12;99564.31;5000231;28;20045;-87
2022/09/03 11:31:27;;;;;;;4.68;4.25;;;;;;;20.80;65.31;99574.69;4939204;28;20046;-88
2022/09/03 11:34:14;;;;;;;4.85;4.40;;;;;;;20.73;65.92;99574.69;5010468;28;20104;-88
2022/09/03 11:36:49;;;;;;;8.77;4.80;;;;;;;20.82;64.92;99575.31;4974740;28;20046;-88
2022/09/03 11:39:31;;;;;;;9.25;4.60;;;;;;;20.74;66.57;99581.75;4980389;28;20046;-88
2022/09/03 11:42:05;;;;;;;6.17;4.13;;;;;;;20.76;65.87;99579.69;5024909;28;20120;-85
2022/09/03 11:44:41;;;;;;;5.97;4.75;;;;;;;20.80;66.18;99577.41;4981096;28;20449;-84
2022/09/03 11:47:24;;;;;;;4.93;4.00;;;;;;;20.92;65.71;99578.44;4940489;28;20049;-87
2022/09/03 11:49:52;;;;;;;5.80;4.53;;;;;;;21.02;65.86;99580.69;4960497;28;20074;-87
2022/09/03 11:52:31;;;;;;;7.72;5.10;;;;;;;20.91;67.15;99584.03;4983113;28;20046;-84
2022/09/03 11:54:58;;;;;;;6.55;5.00;;;;;;;21.07;65.67;99572.81;4963682;28;20054;-86
2022/09/03 11:57:28;;;;;;;7.47;4.80;;;;;;;21.11;65.35;99574.03;4962163;28;20406;-85
2022/09/03 12:00:20;;;;;;;8.00;4.72;;;;;;;21.05;65.74;99579.44;4981672;28;21460;-85
2022/09/03 12:03:01;;;;;;;6.07;5.10;;;;;;;21.16;65.57;99576.91;4932219;28;20046;-85
2022/09/03 12:05:48;;;;;;;7.20;5.15;;;;;;;21.08;66.85;99577.16;4941639;28;20133;-86
2022/09/03 12:08:24;;;;;;;7.15;5.55;;;;;;;21.13;66.78;99573.81;4945766;28;20047;-85
2022/09/03 12:11:04;;;;;;;7.03;5.65;;;;;;;21.11;66.74;99574.03;4978912;28;20570;-86
2022/09/03 12:13:57;;;;;;;5.63;5.10;;;;;;;21.11;67.02;99576.72;4989439;28;20042;-85
2022/09/03 12:16:23;;;;;;;;;;;;;;;21.02;67.40;99578.00;4934897;28;20390;-90
2022/09/03 12:18:54;;;;;;;5.18;4.50;;;;;;;21.16;65.72;99571.53;5013049;28;19944;-90
2022/09/03 12:21:21;;;;;;;8.40;5.38;;;;;;;21.20;65.47;99572.78;4984627;28;20057;-91